createdAt,value
2022-09-27T00:00:36.795Z,15.30
2022-09-27T00:02:04.011Z,11.90
2022-09-27T00:03:12.586Z,12.10
2022-09-27T00:04:19.661Z,11.10
2022-09-27T00:05:27.199Z,10.50
2022-09-27T00:06:38.609Z,12.00
2022-09-27T00:07:48.517Z,16.10
2022-09-27T00:08:55.992Z,12.10
2022-09-27T00:10:03.796Z,13.60
2022-09-27T00:11:14.989Z,11.00
2022-09-27T00:12:22.132Z,13.20
2022-09-27T00:13:29.557Z,11.10
2022-09-27T00:14:37.065Z,10.30
2022-09-27T00:15:44.178Z,9.90
2022-09-27T00:16:52.039Z,10.60
2022-09-27T00:17:59.532Z,13.30
2022-09-27T00:19:08.070Z,13.40
2022-09-27T00:20:15.000Z,11.80
2022-09-27T00:21:22.591Z,14.80
2022-09-27T00:22:29.955Z,11.40
2022-09-27T00:23:36.922Z,12.00
2022-09-27T00:24:44.270Z,12.00
2022-09-27T00:25:58.560Z,10.40
2022-09-27T00:27:05.963Z,12.00
2022-09-27T00:28:13.633Z,12.00
2022-09-27T00:29:22.665Z,12.10
2022-09-27T00:30:32.059Z,14.70
2022-09-27T00:31:41.108Z,8.80
2022-09-27T00:32:50.171Z,11.80
2022-09-27T00:34:00.335Z,10.30
2022-09-27T00:35:12.894Z,13.00
2022-09-27T00:36:24.762Z,8.70
2022-09-27T00:37:36.006Z,12.50
2022-09-27T00:38:44.741Z,9.60
2022-09-27T00:39:54.059Z,7.80
2022-09-27T00:41:03.814Z,8.20
2022-09-27T00:42:16.450Z,9.00
2022-09-27T00:43:25.931Z,11.70
2022-09-27T00:44:35.359Z,9.60
2022-09-27T00:45:45.340Z,9.00
2022-09-27T00:46:55.474Z,8.10
2022-09-27T00:48:05.484Z,7.60
2022-09-27T00:49:38.034Z,9.00
2022-09-27T00:50:47.144Z,13.90
2022-09-27T00:52:00.211Z,8.90
2022-09-27T00:53:15.179Z,11.30
2022-09-27T00:54:24.031Z,10.00
2022-09-27T00:55:35.365Z,8.20
2022-09-27T00:56:45.095Z,11.60
2022-09-27T00:57:56.154Z,9.60
2022-09-27T00:59:32.997Z,9.20
2022-09-27T01:00:42.627Z,9.30
2022-09-27T01:01:52.120Z,13.80
2022-09-27T01:03:02.031Z,9.80
2022-09-27T01:04:12.324Z,10.70
2022-09-27T01:05:22.857Z,7.20
2022-09-27T01:06:31.170Z,9.60
2022-09-27T01:07:40.592Z,8.30
2022-09-27T01:08:50.118Z,7.80
2022-09-27T01:09:59.465Z,7.90
2022-09-27T01:11:29.094Z,8.70
2022-09-27T01:13:00.003Z,10.10
2022-09-27T01:14:41.862Z,11.10
2022-09-27T01:15:56.491Z,9.10
2022-09-27T01:17:18.627Z,11.20
2022-09-27T01:19:00.832Z,9.10
2022-09-27T01:20:18.913Z,11.00
2022-09-27T01:21:53.093Z,10.60
2022-09-27T01:23:09.989Z,7.80
2022-09-27T01:24:32.698Z,10.10
2022-09-27T01:26:12.183Z,10.00
2022-09-27T01:27:58.078Z,9.50
2022-09-27T01:29:25.139Z,9.40
2022-09-27T01:30:49.716Z,8.70
2022-09-27T01:32:23.468Z,11.30
2022-09-27T01:34:06.003Z,11.70
2022-09-27T01:35:29.161Z,11.20
2022-09-27T01:36:56.802Z,12.80
2022-09-27T01:38:08.906Z,10.70
2022-09-27T01:39:24.475Z,11.90
2022-09-27T01:41:21.241Z,14.50
2022-09-27T01:43:01.555Z,10.30
2022-09-27T01:44:17.187Z,13.10
2022-09-27T01:45:47.818Z,12.20
2022-09-27T01:47:41.679Z,11.90
2022-09-27T01:49:36.843Z,13.50
2022-09-27T01:51:16.852Z,10.50
2022-09-27T01:52:29.594Z,18.60
2022-09-27T01:53:58.757Z,13.30
2022-09-27T01:55:09.868Z,14.50
2022-09-27T01:56:57.853Z,11.50
2022-09-27T01:58:20.022Z,9.60
2022-09-27T01:59:34.748Z,16.20
2022-09-27T02:00:52.819Z,7.60
2022-09-27T02:02:05.455Z,11.30
2022-09-27T02:03:25.649Z,15.50
2022-09-27T02:04:54.162Z,18.10
2022-09-27T02:06:06.707Z,10.30
2022-09-27T02:07:43.121Z,12.30
2022-09-27T02:08:58.349Z,10.00
2022-09-27T02:10:31.601Z,16.30
2022-09-27T02:11:45.294Z,14.70
2022-09-27T02:13:17.726Z,8.50
2022-09-27T02:14:56.416Z,10.30
2022-09-27T02:16:21.836Z,11.20
2022-09-27T02:17:56.343Z,9.60
2022-09-27T02:19:32.603Z,9.80
2022-09-27T02:20:44.324Z,9.90
2022-09-27T02:21:58.898Z,11.40
2022-09-27T02:23:20.969Z,11.80
2022-09-27T02:24:52.974Z,12.60
2022-09-27T02:26:12.433Z,7.90
2022-09-27T02:27:48.576Z,9.50
2022-09-27T02:29:21.419Z,11.60
2022-09-27T02:30:32.380Z,10.80
2022-09-27T02:31:48.487Z,9.00
2022-09-27T02:32:57.707Z,8.60
2022-09-27T02:34:16.025Z,8.50
2022-09-27T02:35:29.879Z,8.30
2022-09-27T02:36:37.809Z,9.50
2022-09-27T02:37:46.359Z,11.00
2022-09-27T02:38:56.306Z,8.60
2022-09-27T02:40:06.152Z,9.80
2022-09-27T02:41:21.316Z,6.80
2022-09-27T02:42:29.429Z,8.30
2022-09-27T02:43:38.629Z,9.20
2022-09-27T02:44:47.171Z,10.00
2022-09-27T02:46:09.806Z,10.50
2022-09-27T02:47:55.910Z,9.70
2022-09-27T02:49:40.549Z,10.30
2022-09-27T02:51:23.534Z,8.10
2022-09-27T02:52:46.130Z,7.80
2022-09-27T02:54:11.445Z,6.70
2022-09-27T02:56:01.938Z,6.40
2022-09-27T02:57:58.429Z,10.70
2022-09-27T02:59:44.631Z,14.20
2022-09-27T03:01:11.181Z,11.90
2022-09-27T03:02:59.656Z,8.60
2022-09-27T03:04:28.269Z,8.80
2022-09-27T03:05:41.611Z,9.10
2022-09-27T03:06:50.348Z,8.80
2022-09-27T03:07:59.742Z,7.10
2022-09-27T03:09:16.386Z,7.90
2022-09-27T03:10:29.064Z,10.10
2022-09-27T03:11:37.310Z,7.90
2022-09-27T03:12:46.570Z,8.10
2022-09-27T03:14:13.654Z,8.00
2022-09-27T03:15:33.877Z,9.90
2022-09-27T03:16:42.021Z,9.90
2022-09-27T03:18:17.752Z,9.40
2022-09-27T03:19:35.927Z,9.50
2022-09-27T03:21:03.485Z,12.10
2022-09-27T03:22:11.831Z,5.50
2022-09-27T03:23:20.422Z,8.50
2022-09-27T03:24:29.029Z,8.10
2022-09-27T03:25:37.705Z,8.90
2022-09-27T03:26:46.485Z,8.30
2022-09-27T03:27:56.238Z,11.70
2022-09-27T03:29:05.084Z,7.60
2022-09-27T03:30:14.609Z,11.60
2022-09-27T03:31:24.282Z,7.20
2022-09-27T03:32:53.641Z,12.10
2022-09-27T03:34:20.198Z,9.10
2022-09-27T03:35:28.735Z,8.50
2022-09-27T03:36:38.097Z,11.40
2022-09-27T03:37:46.682Z,8.20
2022-09-27T03:39:00.091Z,7.10
2022-09-27T03:40:09.246Z,9.60
2022-09-27T03:41:18.994Z,9.40
2022-09-27T03:42:27.746Z,11.60
2022-09-27T03:43:36.211Z,8.00
2022-09-27T03:44:46.324Z,12.10
2022-09-27T03:45:56.264Z,10.00
2022-09-27T03:47:05.610Z,12.70
2022-09-27T03:48:16.402Z,8.20
2022-09-27T03:49:24.955Z,8.10
2022-09-27T03:50:33.067Z,6.90
2022-09-27T03:51:42.618Z,9.30
2022-09-27T03:52:54.130Z,10.80
2022-09-27T03:54:04.474Z,13.40
2022-09-27T03:55:14.090Z,8.20
2022-09-27T03:56:22.637Z,10.70
2022-09-27T03:57:33.217Z,7.20
2022-09-27T03:58:45.475Z,9.60
2022-09-27T03:59:56.339Z,8.30
2022-09-27T04:01:21.280Z,7.00
2022-09-27T04:02:32.883Z,7.70
2022-09-27T04:04:00.372Z,7.00
2022-09-27T04:05:13.516Z,9.10
2022-09-27T04:06:22.415Z,9.70
2022-09-27T04:07:31.972Z,7.20
2022-09-27T04:08:41.606Z,7.50
2022-09-27T04:09:51.972Z,9.10
2022-09-27T04:11:00.801Z,8.70
2022-09-27T04:12:10.189Z,8.70
2022-09-27T04:13:19.705Z,11.30
2022-09-27T04:14:34.117Z,7.90
2022-09-27T04:16:12.215Z,9.60
2022-09-27T04:17:34.431Z,9.50
2022-09-27T04:19:10.142Z,9.90
2022-09-27T04:20:34.659Z,10.10
2022-09-27T04:21:47.519Z,8.70
2022-09-27T04:22:56.389Z,9.70
2022-09-27T04:24:07.348Z,8.40
2022-09-27T04:25:15.840Z,9.10
2022-09-27T04:26:24.155Z,7.50
2022-09-27T04:27:54.116Z,10.00
2022-09-27T04:29:03.672Z,9.00
2022-09-27T04:30:14.358Z,15.30
2022-09-27T04:31:52.665Z,8.70
2022-09-27T04:33:33.345Z,9.70
2022-09-27T04:35:12.935Z,8.80
2022-09-27T04:36:31.035Z,8.40
2022-09-27T04:37:57.385Z,10.20
2022-09-27T04:39:08.017Z,11.50
2022-09-27T04:40:22.407Z,8.90
2022-09-27T04:41:31.896Z,11.60
2022-09-27T04:42:41.099Z,12.00
2022-09-27T04:43:49.967Z,8.10
2022-09-27T04:44:58.826Z,9.50
2022-09-27T04:46:08.801Z,12.10
2022-09-27T04:47:17.647Z,9.40
2022-09-27T04:48:26.499Z,11.00
2022-09-27T04:49:35.761Z,8.60
2022-09-27T04:50:44.679Z,8.70
2022-09-27T04:51:55.042Z,7.30
2022-09-27T04:53:04.600Z,7.70
2022-09-27T04:54:12.385Z,10.40
2022-09-27T04:55:29.624Z,8.90
2022-09-27T04:56:38.400Z,14.10
2022-09-27T04:57:47.504Z,7.50
2022-09-27T04:58:57.243Z,10.10
2022-09-27T05:00:07.203Z,9.00
2022-09-27T05:01:16.856Z,7.90
2022-09-27T05:02:34.326Z,9.80
2022-09-27T05:04:10.214Z,8.50
2022-09-27T05:05:20.448Z,10.30
2022-09-27T05:06:29.663Z,12.30
2022-09-27T05:07:41.967Z,13.80
2022-09-27T05:08:55.754Z,10.80
2022-09-27T05:10:10.494Z,10.00
2022-09-27T05:11:19.271Z,12.80
2022-09-27T05:12:50.196Z,10.60
2022-09-27T05:13:59.570Z,11.50
2022-09-27T05:15:10.025Z,11.90
2022-09-27T05:16:22.512Z,11.00
2022-09-27T05:17:58.414Z,10.40
2022-09-27T05:19:30.259Z,10.60
2022-09-27T05:20:58.756Z,12.40
2022-09-27T05:22:21.557Z,10.30
2022-09-27T05:23:35.678Z,13.10
2022-09-27T05:24:44.495Z,7.90
2022-09-27T05:25:54.009Z,9.20
2022-09-27T05:27:06.229Z,8.70
2022-09-27T05:28:13.926Z,12.20
2022-09-27T05:29:22.498Z,9.70
2022-09-27T05:30:46.473Z,8.70
2022-09-27T05:32:00.710Z,9.80
2022-09-27T05:33:09.665Z,9.40
2022-09-27T05:34:51.121Z,11.30
2022-09-27T05:36:01.092Z,9.50
2022-09-27T05:37:11.974Z,12.40
2022-09-27T05:38:21.121Z,9.00
2022-09-27T05:39:31.485Z,9.40
2022-09-27T05:40:41.727Z,10.20
2022-09-27T05:41:53.031Z,9.60
2022-09-27T05:43:02.224Z,12.10
2022-09-27T05:44:10.999Z,9.60
2022-09-27T05:45:22.529Z,10.90
2022-09-27T05:46:32.996Z,13.50
2022-09-27T05:47:41.864Z,10.50
2022-09-27T05:48:50.426Z,8.90
2022-09-27T05:49:59.404Z,13.70
2022-09-27T05:51:08.878Z,11.70
2022-09-27T05:52:21.456Z,13.10
2022-09-27T05:53:33.921Z,12.30
2022-09-27T05:54:44.482Z,16.10
2022-09-27T05:55:53.859Z,10.90
2022-09-27T05:57:10.292Z,12.00
2022-09-27T05:58:28.229Z,15.80
2022-09-27T05:59:49.442Z,11.30
2022-09-27T06:01:30.429Z,14.90
2022-09-27T06:03:03.005Z,12.30
2022-09-27T06:04:41.848Z,11.30
2022-09-27T06:06:09.259Z,11.00
2022-09-27T06:07:27.951Z,13.10
2022-09-27T06:08:37.007Z,15.70
2022-09-27T06:09:47.525Z,11.70
2022-09-27T06:11:08.214Z,12.40
2022-09-27T06:12:16.982Z,9.40
2022-09-27T06:13:24.976Z,8.90
2022-09-27T06:14:32.936Z,12.40
2022-09-27T06:15:49.322Z,11.50
2022-09-27T06:16:57.716Z,14.30
2022-09-27T06:18:12.316Z,12.10
2022-09-27T06:19:21.787Z,11.80
2022-09-27T06:20:30.143Z,9.30
2022-09-27T06:21:42.241Z,8.30
2022-09-27T06:22:56.420Z,11.20
2022-09-27T06:24:05.415Z,11.10
2022-09-27T06:25:16.819Z,8.90
2022-09-27T06:26:42.671Z,10.60
2022-09-27T06:27:57.721Z,9.60
2022-09-27T06:29:11.329Z,15.20
2022-09-27T06:30:26.573Z,12.50
2022-09-27T06:31:35.264Z,14.90
2022-09-27T06:33:02.413Z,8.80
2022-09-27T06:34:27.248Z,10.70
2022-09-27T06:35:40.637Z,15.90
2022-09-27T06:36:52.954Z,10.30
2022-09-27T06:38:14.244Z,11.10
2022-09-27T06:39:31.152Z,12.00
2022-09-27T06:40:50.484Z,14.50
2022-09-27T06:42:13.256Z,13.50
2022-09-27T06:43:54.031Z,11.30
2022-09-27T06:45:18.975Z,11.40
2022-09-27T06:46:46.340Z,9.30
2022-09-27T06:48:22.796Z,13.70
2022-09-27T06:49:48.148Z,13.10
2022-09-27T06:51:00.087Z,15.90
2022-09-27T06:52:09.450Z,10.70
2022-09-27T06:53:24.980Z,16.20
2022-09-27T06:54:33.726Z,14.60
2022-09-27T06:55:45.504Z,10.40
2022-09-27T06:57:03.771Z,13.80
2022-09-27T06:58:31.634Z,15.20
2022-09-27T07:00:16.449Z,12.70
2022-09-27T07:01:45.513Z,15.20
2022-09-27T07:03:10.526Z,11.30
2022-09-27T07:04:55.326Z,14.10
2022-09-27T07:06:40.855Z,19.80
2022-09-27T07:08:14.859Z,11.90
2022-09-27T07:09:23.022Z,11.60
2022-09-27T07:10:31.463Z,13.10
2022-09-27T07:11:40.489Z,17.80
2022-09-27T07:12:54.355Z,16.40
2022-09-27T07:14:06.788Z,11.70
2022-09-27T07:15:16.918Z,10.40
2022-09-27T07:16:25.718Z,10.90
2022-09-27T07:17:34.559Z,9.10
2022-09-27T07:18:43.627Z,8.40
2022-09-27T07:19:53.132Z,8.10
2022-09-27T07:21:03.263Z,12.30
2022-09-27T07:22:11.995Z,10.70
2022-09-27T07:23:22.492Z,14.60
2022-09-27T07:24:31.391Z,12.20
2022-09-27T07:25:41.457Z,11.80
2022-09-27T07:26:50.622Z,12.40
2022-09-27T07:28:11.145Z,10.50
2022-09-27T07:29:19.468Z,15.60
2022-09-27T07:30:29.126Z,14.20
2022-09-27T07:31:37.453Z,11.30
2022-09-27T07:32:46.630Z,10.90
2022-09-27T07:33:55.287Z,9.20
2022-09-27T07:35:04.702Z,10.30
2022-09-27T07:36:13.606Z,9.70
2022-09-27T07:37:24.933Z,9.60
2022-09-27T07:38:33.387Z,11.90
2022-09-27T07:39:42.137Z,11.40
2022-09-27T07:40:50.824Z,9.40
2022-09-27T07:42:00.450Z,12.30
2022-09-27T07:43:14.512Z,10.60
2022-09-27T07:44:22.215Z,11.00
2022-09-27T07:46:01.109Z,10.50
2022-09-27T07:47:29.816Z,10.20
2022-09-27T07:48:48.457Z,13.50
2022-09-27T07:50:14.552Z,12.40
2022-09-27T07:51:39.070Z,10.90
2022-09-27T07:52:54.734Z,11.40
2022-09-27T07:54:17.005Z,10.90
2022-09-27T07:55:44.607Z,10.20
2022-09-27T07:56:58.220Z,11.90
2022-09-27T07:58:08.105Z,12.20
2022-09-27T07:59:18.009Z,11.60
2022-09-27T08:00:28.240Z,11.00
2022-09-27T08:01:39.681Z,12.90
2022-09-27T08:02:48.094Z,8.60
2022-09-27T08:03:56.594Z,9.20
2022-09-27T08:05:06.398Z,20.40
2022-09-27T08:06:17.355Z,9.90
2022-09-27T08:07:25.814Z,15.80
2022-09-27T08:08:35.734Z,12.40
2022-09-27T08:09:46.218Z,10.60
2022-09-27T08:10:55.250Z,14.10
2022-09-27T08:12:06.439Z,12.70
2022-09-27T08:13:15.159Z,10.30
2022-09-27T08:14:24.999Z,17.20
2022-09-27T08:15:40.821Z,15.60
2022-09-27T08:16:50.244Z,11.00
2022-09-27T08:18:19.028Z,9.80
2022-09-27T08:19:40.351Z,9.80
2022-09-27T08:21:27.665Z,13.40
2022-09-27T08:22:58.252Z,12.30
2022-09-27T08:24:12.449Z,9.50
2022-09-27T08:25:38.920Z,13.20
2022-09-27T08:27:12.022Z,16.50
2022-09-27T08:28:33.342Z,15.50
2022-09-27T08:30:01.251Z,12.40
2022-09-27T08:31:10.239Z,11.50
2022-09-27T08:32:23.081Z,12.50
2022-09-27T08:33:34.897Z,9.90
2022-09-27T08:34:45.417Z,9.80
2022-09-27T08:35:55.531Z,16.10
2022-09-27T08:37:05.460Z,14.90
2022-09-27T08:38:17.103Z,12.20
2022-09-27T08:39:25.931Z,8.80
2022-09-27T08:40:56.662Z,12.50
2022-09-27T08:42:05.362Z,11.80
2022-09-27T08:43:30.227Z,9.60
2022-09-27T08:45:02.341Z,12.30
2022-09-27T08:46:30.222Z,11.40
2022-09-27T08:47:40.308Z,12.10
2022-09-27T08:48:51.793Z,13.60
2022-09-27T08:50:02.188Z,14.70
2022-09-27T08:51:12.314Z,11.70
2022-09-27T08:52:35.310Z,10.00
2022-09-27T08:53:54.592Z,13.90
2022-09-27T08:55:05.424Z,9.50
2022-09-27T08:56:13.799Z,11.70
2022-09-27T08:57:26.776Z,12.60
2022-09-27T08:58:38.827Z,8.00
2022-09-27T09:00:14.616Z,10.70
2022-09-27T09:01:27.813Z,9.70
2022-09-27T09:03:04.707Z,12.60
2022-09-27T09:04:14.967Z,12.00
2022-09-27T09:05:35.174Z,11.40
2022-09-27T09:06:52.948Z,10.70
2022-09-27T09:08:31.578Z,9.40
2022-09-27T09:10:00.573Z,7.70
2022-09-27T09:11:43.632Z,14.90
2022-09-27T09:12:59.493Z,10.00
2022-09-27T09:14:35.158Z,11.10
2022-09-27T09:16:11.716Z,6.90
2022-09-27T09:17:38.410Z,10.10
2022-09-27T09:19:37.058Z,11.60
2022-09-27T09:21:21.423Z,10.60
2022-09-27T09:22:39.636Z,11.00
2022-09-27T09:24:19.527Z,7.80
2022-09-27T09:25:57.555Z,9.60
2022-09-27T09:27:26.960Z,9.20
2022-09-27T09:29:09.133Z,12.90
2022-09-27T09:30:38.511Z,12.10
2022-09-27T09:31:54.281Z,8.90
2022-09-27T09:33:09.111Z,10.30
2022-09-27T09:34:36.905Z,10.40
2022-09-27T09:35:57.052Z,13.30
2022-09-27T09:37:06.074Z,15.90
2022-09-27T09:38:17.596Z,15.40
2022-09-27T09:39:32.549Z,11.20
2022-09-27T09:40:55.456Z,14.00
2022-09-27T09:42:17.501Z,14.50
2022-09-27T09:43:33.821Z,17.00
2022-09-27T09:44:55.888Z,20.60
2022-09-27T09:46:18.627Z,14.20
2022-09-27T09:47:43.336Z,9.50
2022-09-27T09:49:04.869Z,13.50
2022-09-27T09:50:24.471Z,8.30
2022-09-27T09:51:45.186Z,13.20
2022-09-27T09:52:57.032Z,11.20
2022-09-27T09:54:10.840Z,14.10
2022-09-27T09:55:23.178Z,13.10
2022-09-27T09:56:36.340Z,12.60
2022-09-27T09:58:03.118Z,10.10
2022-09-27T09:59:26.380Z,12.70
2022-09-27T10:00:35.135Z,11.10
2022-09-27T10:01:47.685Z,9.20
2022-09-27T10:02:58.033Z,11.30
2022-09-27T10:04:07.499Z,12.60
2022-09-27T10:05:25.980Z,12.90
2022-09-27T10:06:40.373Z,11.30
2022-09-27T10:07:50.187Z,13.70
2022-09-27T10:08:58.364Z,14.00
2022-09-27T10:10:16.471Z,14.70
2022-09-27T10:11:48.198Z,10.80
2022-09-27T10:13:06.415Z,15.00
2022-09-27T10:14:19.961Z,13.20
2022-09-27T10:15:32.587Z,16.60
2022-09-27T10:16:44.391Z,12.50
2022-09-27T10:17:55.775Z,12.80
2022-09-27T10:19:05.966Z,15.60
2022-09-27T10:20:24.372Z,10.60
2022-09-27T10:21:33.293Z,9.90
2022-09-27T10:22:50.705Z,14.40
2022-09-27T10:24:18.778Z,13.80
2022-09-27T10:25:54.282Z,11.00
2022-09-27T10:27:17.248Z,12.70
2022-09-27T10:28:33.953Z,15.30
2022-09-27T10:29:42.378Z,14.40
2022-09-27T10:31:03.206Z,11.30
2022-09-27T10:32:25.006Z,10.70
2022-09-27T10:34:00.490Z,10.20
2022-09-27T10:35:32.720Z,11.20
2022-09-27T10:36:41.329Z,10.40
2022-09-27T10:37:50.171Z,10.20
2022-09-27T10:39:06.484Z,11.70
2022-09-27T10:40:35.123Z,13.40
2022-09-27T10:41:45.299Z,10.40
2022-09-27T10:43:00.087Z,10.70
2022-09-27T10:44:36.428Z,10.10
2022-09-27T10:46:35.838Z,9.70
2022-09-27T10:47:59.821Z,12.10
2022-09-27T10:49:24.969Z,10.70
2022-09-27T10:50:50.138Z,9.80
2022-09-27T10:52:11.291Z,9.90
2022-09-27T10:53:21.891Z,9.70
2022-09-27T10:54:39.187Z,10.80
2022-09-27T10:55:51.992Z,16.30
2022-09-27T10:57:06.858Z,17.10
2022-09-27T10:58:39.518Z,11.80
2022-09-27T11:00:03.039Z,9.10
2022-09-27T11:01:17.374Z,8.30
2022-09-27T11:03:03.444Z,11.50
2022-09-27T11:04:21.438Z,14.40
2022-09-27T11:05:31.554Z,13.10
2022-09-27T11:06:40.094Z,12.50
2022-09-27T11:07:56.957Z,15.50
2022-09-27T11:09:28.516Z,12.00
2022-09-27T11:10:39.359Z,12.60
2022-09-27T11:11:48.026Z,9.50
2022-09-27T11:13:16.571Z,11.40
2022-09-27T11:14:26.729Z,14.40
2022-09-27T11:15:37.238Z,13.30
2022-09-27T11:17:08.736Z,10.40
2022-09-27T11:18:47.039Z,10.00
2022-09-27T11:19:58.819Z,14.70
2022-09-27T11:21:18.643Z,13.10
2022-09-27T11:22:57.655Z,10.80
2022-09-27T11:24:50.423Z,12.90
2022-09-27T11:26:04.181Z,12.00
2022-09-27T11:27:18.249Z,10.80
2022-09-27T11:28:44.359Z,9.40
2022-09-27T11:30:14.023Z,11.70
2022-09-27T11:32:05.414Z,12.90
2022-09-27T11:33:16.813Z,12.30
2022-09-27T11:35:04.387Z,9.30
2022-09-27T11:36:36.019Z,12.40
2022-09-27T11:38:12.756Z,11.10
2022-09-27T11:39:27.170Z,12.90
2022-09-27T11:41:05.607Z,20.90
2022-09-27T11:42:27.244Z,10.60
2022-09-27T11:43:49.895Z,13.50
2022-09-27T11:45:37.420Z,10.40
2022-09-27T11:46:55.789Z,12.90
2022-09-27T11:48:14.793Z,10.70
2022-09-27T11:49:50.017Z,13.50
2022-09-27T11:51:08.049Z,13.10
2022-09-27T11:52:50.452Z,13.10
2022-09-27T11:54:03.294Z,11.10
2022-09-27T11:55:25.416Z,13.10
2022-09-27T11:57:14.613Z,11.20
2022-09-27T11:58:42.053Z,21.00
2022-09-27T12:00:27.674Z,12.60
2022-09-27T12:01:54.157Z,11.10
2022-09-27T12:03:23.424Z,15.30
2022-09-27T12:04:53.333Z,13.50
2022-09-27T12:06:21.727Z,15.30
2022-09-27T12:07:47.849Z,14.70
2022-09-27T12:09:08.861Z,13.50
2022-09-27T12:10:23.128Z,20.00
2022-09-27T12:11:40.476Z,15.80
2022-09-27T12:12:53.397Z,12.80
2022-09-27T12:14:04.965Z,12.90
2022-09-27T12:15:28.401Z,13.00
2022-09-27T12:16:36.498Z,17.90
2022-09-27T12:17:46.655Z,20.10
2022-09-27T12:18:56.606Z,16.00
2022-09-27T12:20:33.524Z,13.30
2022-09-27T12:21:42.775Z,15.30
2022-09-27T12:23:09.788Z,10.40
2022-09-27T12:24:30.858Z,16.20
2022-09-27T12:25:45.762Z,12.70
2022-09-27T12:27:19.668Z,14.90
2022-09-27T12:28:42.515Z,17.50
2022-09-27T12:29:51.663Z,15.00
2022-09-27T12:31:28.496Z,13.10
2022-09-27T12:32:55.435Z,14.20
2022-09-27T12:35:56.399Z,13.30
2022-09-27T12:37:14.145Z,13.50
2022-09-27T12:39:05.157Z,12.20
2022-09-27T12:40:23.295Z,12.20
2022-09-27T12:41:33.629Z,12.00
2022-09-27T12:43:23.486Z,11.70
2022-09-27T12:45:01.596Z,14.10
2022-09-27T12:46:42.322Z,13.50
2022-09-27T12:48:00.534Z,14.10
2022-09-27T12:49:12.767Z,15.80
2022-09-27T12:50:26.426Z,16.30
2022-09-27T12:51:56.892Z,19.60
2022-09-27T12:53:16.723Z,22.00
2022-09-27T12:55:24.664Z,18.40
2022-09-27T12:56:46.314Z,14.20
2022-09-27T12:58:18.352Z,22.40
2022-09-27T12:59:30.037Z,15.80
2022-09-27T13:00:49.567Z,12.20
2022-09-27T13:02:01.635Z,18.40
2022-09-27T13:03:34.818Z,18.10
2022-09-27T13:04:55.216Z,13.50
2022-09-27T13:06:54.834Z,18.80
2022-09-27T13:08:41.836Z,13.10
2022-09-27T13:10:10.220Z,15.30
2022-09-27T13:11:51.131Z,11.80
2022-09-27T13:12:59.894Z,12.50
2022-09-27T13:14:08.875Z,13.50
2022-09-27T13:15:38.148Z,16.70
2022-09-27T13:16:48.805Z,15.70
2022-09-27T13:18:03.401Z,14.80
2022-09-27T13:19:39.123Z,16.10
2022-09-27T13:20:50.980Z,16.50
2022-09-27T13:22:41.527Z,12.00
2022-09-27T13:24:06.167Z,13.90
2022-09-27T13:25:54.408Z,13.70
2022-09-27T13:27:28.245Z,15.20
2022-09-27T13:29:05.784Z,22.70
2022-09-27T13:30:22.573Z,17.20
2022-09-27T13:31:59.799Z,15.40
2022-09-27T13:33:38.180Z,19.20
2022-09-27T13:34:52.449Z,19.80
2022-09-27T13:36:30.301Z,14.90
2022-09-27T13:38:12.300Z,13.20
2022-09-27T13:39:26.178Z,17.30
2022-09-27T13:40:56.781Z,17.60
2022-09-27T13:42:37.070Z,16.20
2022-09-27T13:43:59.861Z,17.30
2022-09-27T13:45:37.327Z,15.80
2022-09-27T13:47:29.942Z,17.00
2022-09-27T13:48:53.428Z,24.70
2022-09-27T13:50:27.706Z,28.10
2022-09-27T13:52:03.183Z,27.80
2022-09-27T13:53:27.985Z,28.80
2022-09-27T13:54:41.281Z,19.40
2022-09-27T13:55:52.895Z,21.20
2022-09-27T13:57:50.772Z,23.50
2022-09-27T13:59:04.041Z,20.70
2022-09-27T14:00:40.975Z,21.00
2022-09-27T14:02:15.815Z,19.70
2022-09-27T14:03:37.402Z,18.40
2022-09-27T14:04:51.639Z,15.80
2022-09-27T14:06:07.883Z,19.50
2022-09-27T14:07:34.538Z,19.60
2022-09-27T14:08:53.622Z,17.80
2022-09-27T14:10:07.362Z,21.60
2022-09-27T14:11:23.659Z,12.20
2022-09-27T14:12:34.953Z,13.00
2022-09-27T14:13:43.344Z,14.20
2022-09-27T14:14:54.296Z,19.80
2022-09-27T14:16:06.839Z,17.10
2022-09-27T14:17:22.539Z,26.60
2022-09-27T14:18:34.637Z,16.40
2022-09-27T14:19:43.506Z,20.90
2022-09-27T14:20:54.636Z,13.60
2022-09-27T14:22:34.731Z,16.00
2022-09-27T14:23:45.968Z,24.80
2022-09-27T14:25:05.619Z,21.30
2022-09-27T14:26:27.783Z,20.40
2022-09-27T14:27:39.816Z,19.90
2022-09-27T14:29:19.668Z,16.40
2022-09-27T14:30:30.766Z,20.30
2022-09-27T14:32:08.080Z,19.70
2022-09-27T14:33:36.182Z,23.80
2022-09-27T14:35:33.280Z,15.00
2022-09-27T14:37:01.356Z,19.10
2022-09-27T14:38:37.980Z,14.90
2022-09-27T14:40:01.444Z,21.20
2022-09-27T14:41:13.852Z,20.60
2022-09-27T14:42:23.547Z,15.50
2022-09-27T14:43:32.155Z,16.80
2022-09-27T14:44:40.320Z,17.80
2022-09-27T14:45:50.819Z,18.40
2022-09-27T14:47:22.029Z,20.20
2022-09-27T14:48:40.504Z,19.40
2022-09-27T14:49:53.588Z,13.80
2022-09-27T14:51:08.570Z,16.20
2022-09-27T14:52:22.673Z,16.40
2022-09-27T14:53:34.632Z,21.90
2022-09-27T14:54:42.137Z,19.00
2022-09-27T14:55:49.686Z,17.40
2022-09-27T14:56:58.394Z,18.10
2022-09-27T14:58:06.037Z,15.80
2022-09-27T14:59:17.918Z,18.70
2022-09-27T15:00:28.380Z,19.70
2022-09-27T15:01:36.703Z,20.40
2022-09-27T15:02:45.609Z,28.40
2022-09-27T15:03:54.869Z,23.30
2022-09-27T15:05:02.520Z,24.50
2022-09-27T15:06:10.090Z,20.80
2022-09-27T15:07:18.437Z,22.50
2022-09-27T15:08:26.280Z,22.90
2022-09-27T15:09:33.862Z,22.20
2022-09-27T15:10:42.090Z,23.60
2022-09-27T15:11:53.779Z,20.70
2022-09-27T15:13:02.693Z,23.80
2022-09-27T15:14:13.722Z,22.80
2022-09-27T15:15:23.950Z,23.60
2022-09-27T15:16:32.387Z,23.20
2022-09-27T15:17:45.236Z,24.90
2022-09-27T15:19:11.246Z,24.50
2022-09-27T15:20:38.411Z,19.10
2022-09-27T15:21:48.619Z,22.50
2022-09-27T15:22:56.825Z,22.20
2022-09-27T15:24:04.251Z,23.60
2022-09-27T15:25:33.694Z,19.60
2022-09-27T15:26:48.474Z,23.80
2022-09-27T15:27:57.221Z,24.00
2022-09-27T15:29:05.779Z,21.00
2022-09-27T15:30:19.977Z,26.40
2022-09-27T15:31:42.499Z,24.20
2022-09-27T15:32:54.307Z,24.20
2022-09-27T15:34:01.966Z,26.30
2022-09-27T15:35:10.001Z,21.20
2022-09-27T15:36:19.803Z,16.60
2022-09-27T15:37:47.740Z,20.50
2022-09-27T15:38:54.716Z,17.80
2022-09-27T15:40:21.210Z,19.60
2022-09-27T15:41:31.013Z,21.00
2022-09-27T15:42:58.945Z,17.60
2022-09-27T15:44:12.240Z,16.30
2022-09-27T15:45:37.560Z,19.70
2022-09-27T15:46:49.905Z,18.00
2022-09-27T15:47:57.865Z,21.20
2022-09-27T15:49:24.139Z,19.30
2022-09-27T15:50:34.483Z,18.80
2022-09-27T15:51:46.829Z,20.50
2022-09-27T15:52:58.680Z,22.40
2022-09-27T15:54:06.527Z,17.00
2022-09-27T15:55:14.777Z,22.80
2022-09-27T15:56:22.484Z,18.10
2022-09-27T15:57:30.425Z,18.10
2022-09-27T15:58:38.733Z,20.50
2022-09-27T15:59:46.471Z,19.60
2022-09-27T16:01:03.779Z,19.60
2022-09-27T16:02:18.603Z,22.10
2022-09-27T16:03:30.380Z,23.20
2022-09-27T16:04:38.114Z,19.60
2022-09-27T16:05:45.806Z,28.10
2022-09-27T16:06:53.280Z,26.30
2022-09-27T16:08:01.042Z,24.70
2022-09-27T16:09:11.039Z,22.30
2022-09-27T16:10:24.961Z,18.10
2022-09-27T16:11:32.534Z,21.10
2022-09-27T16:12:40.497Z,19.90
2022-09-27T16:13:48.003Z,18.80
2022-09-27T16:14:56.135Z,27.70
2022-09-27T16:16:04.719Z,19.60
2022-09-27T16:17:11.947Z,17.60
2022-09-27T16:18:19.437Z,19.90
2022-09-27T16:19:26.728Z,25.20
2022-09-27T16:20:34.003Z,24.30
2022-09-27T16:21:41.130Z,19.50
2022-09-27T16:22:48.428Z,21.70
2022-09-27T16:23:56.529Z,20.40
2022-09-27T16:25:03.920Z,19.70
2022-09-27T16:26:12.105Z,20.10
2022-09-27T16:27:26.569Z,17.50
2022-09-27T16:28:37.126Z,18.40
2022-09-27T16:29:45.509Z,20.10
2022-09-27T16:30:53.291Z,14.70
2022-09-27T16:32:00.772Z,14.50
2022-09-27T16:33:08.187Z,14.60
2022-09-27T16:34:15.571Z,18.80
2022-09-27T16:35:23.792Z,18.60
2022-09-27T16:36:30.947Z,11.80
2022-09-27T16:37:38.262Z,14.00
2022-09-27T16:38:45.725Z,15.80
2022-09-27T16:39:53.658Z,11.90
2022-09-27T16:41:04.656Z,14.40
2022-09-27T16:42:12.148Z,12.70
2022-09-27T16:43:20.146Z,14.00
2022-09-27T16:44:27.916Z,10.90
2022-09-27T16:45:37.564Z,14.70
2022-09-27T16:46:49.622Z,16.50
2022-09-27T16:47:57.235Z,17.10
2022-09-27T16:49:04.662Z,14.00
2022-09-27T16:50:34.298Z,17.70
2022-09-27T16:51:59.988Z,15.90
2022-09-27T16:53:07.546Z,14.00
2022-09-27T16:54:16.929Z,12.70
2022-09-27T16:55:24.463Z,18.20
2022-09-27T16:56:33.844Z,17.90
2022-09-27T16:57:41.351Z,14.60